Terminal Aerodrome Forecast
Issued by NWS Buffalo, NY

Current Version | Previous Version | Text Only | Print | Product List | Glossary On
Versions: 1 2 3 4 5 6 7 8 9 10 11 12 13 14 15 16 17 18 19 20 21 22 23 24 25 26
000
FTUS41 KBUF 281725
TAFROC
TAF
KROC 281725Z 2818/2918 26012KT P6SM SCT040
     FM282000 26010KT P6SM VCTS BKN040CB
     FM282300 27006KT P6SM BKN040
     FM290300 30005KT P6SM SCT025
     FM291200 33008KT P6SM BKN025
     FM291600 35010KT P6SM SCT040=

USA.gov is the U.S. government's official web portal to all federal, state and local government web resources and services.